Time;durP1;ratioP1;P1;durP2;ratioP2;P2;SDS_P1;SDS_P2;PMS_P1;PMS_P2;Temp;Humidity;BMP_temperature;BMP_pressure;BME280_temperature;BME280_humidity;BME280_pressure;Samples;Min_cycle;Max_cycle;Signal;HPM_P1;HPM_P2
2023/08/26 00:02:11;;;;;;;7.60;6.95;;;17.70;1.00;;;;;;5051658;28;20265;-80
2023/08/26 00:04:37;;;;;;;7.75;7.05;;;17.80;1.00;;;;;;5034187;28;20186;-81
2023/08/26 00:07:02;;;;;;;10.52;7.40;;;18.00;1.00;;;;;;5034165;28;20190;-83
2023/08/26 00:09:28;;;;;;;7.28;6.68;;;16.30;1.00;;;;;;5051879;28;20226;-81
2023/08/26 00:11:54;;;;;;;9.30;6.80;;;17.70;1.00;;;;;;5034604;28;20179;-81
2023/08/26 00:14:19;;;;;;;6.97;6.38;;;17.60;1.00;;;;;;5034314;28;20238;-82
2023/08/26 00:16:45;;;;;;;8.10;6.60;;;17.90;1.00;;;;;;5034421;28;20183;-82
2023/08/26 00:19:11;;;;;;;7.57;6.97;;;17.60;1.00;;;;;;5035375;28;20203;-81
2023/08/26 00:21:38;;;;;;;7.75;6.78;;;17.70;1.00;;;;;;5053180;28;20191;-81
2023/08/26 00:24:04;;;;;;;7.50;6.78;;;17.80;1.00;;;;;;5035591;28;20194;-81
2023/08/26 00:26:30;;;;;;;6.38;5.68;;;18.00;1.00;;;;;;5035093;28;20210;-81
2023/08/26 00:28:56;;;;;;;10.15;6.68;;;17.70;1.00;;;;;;5035625;28;20194;-80
2023/08/26 00:31:24;;;;;;;7.00;6.40;;;18.10;1.00;;;;;;5053629;28;20172;-81
2023/08/26 00:33:50;;;;;;;7.15;6.35;;;18.30;1.00;;;;;;5053084;28;20160;-81
2023/08/26 00:36:16;;;;;;;6.80;6.10;;;17.70;1.00;;;;;;5035910;28;20182;-80
2023/08/26 00:38:42;;;;;;;6.88;6.35;;;17.80;1.00;;;;;;5053094;28;20191;-81
2023/08/26 00:41:08;;;;;;;7.38;6.68;;;18.10;1.00;;;;;;5035638;28;20206;-81
2023/08/26 00:43:37;;;;;;;8.73;5.88;;;17.90;1.00;;;;;;5036330;28;20206;-80
2023/08/26 00:46:03;;;;;;;6.30;5.80;;;17.90;1.00;;;;;;5036420;28;20175;-81
2023/08/26 00:48:29;;;;;;;6.50;5.90;;;18.60;1.00;;;;;;5036811;28;20229;-82
2023/08/26 00:50:55;;;;;;;6.38;5.22;;;18.10;1.00;;;;;;5034419;28;20179;-82
2023/08/26 00:53:24;;;;;;;6.32;5.22;;;18.00;1.00;;;;;;5033963;28;20182;-82
2023/08/26 00:55:51;;;;;;;6.60;6.00;;;18.00;1.00;;;;;;5033977;28;20190;-81
2023/08/26 00:58:18;;;;;;;6.40;5.22;;;18.00;1.00;;;;;;5032924;28;20199;-83
2023/08/26 01:00:44;;;;;;;6.57;5.63;;;18.30;1.00;;;;;;5033173;28;20183;-82
2023/08/26 01:03:11;;;;;;;6.22;5.43;;;17.80;1.00;;;;;;5033275;28;20193;-81
2023/08/26 01:05:36;;;;;;;6.45;5.85;;;17.70;1.00;;;;;;5033248;28;20189;-81
2023/08/26 01:08:06;;;;;;;6.38;5.78;;;18.00;1.00;;;;;;5050289;28;20234;-81
2023/08/26 01:10:44;;;;;;;6.55;5.82;;;18.00;1.00;;;;;;5034202;28;20167;-84
2023/08/26 01:13:14;;;;;;;7.95;5.70;;;17.90;1.00;;;;;;5032486;28;20198;-83
2023/08/26 01:15:48;;;;;;;6.78;5.70;;;17.00;1.00;;;;;;5033584;28;20178;-81
2023/08/26 01:18:15;;;;;;;5.65;5.10;;;20.40;1.00;;;;;;5050298;28;20222;-82
2023/08/26 01:20:43;;;;;;;6.25;5.35;;;17.80;1.00;;;;;;5033860;28;20244;-81
2023/08/26 01:23:19;;;;;;;5.65;5.15;;;18.00;1.00;;;;;;5033317;28;20205;-81
2023/08/26 01:25:45;;;;;;;5.40;4.93;;;17.80;1.00;;;;;;5049807;28;20186;-81
2023/08/26 01:28:10;;;;;;;7.93;5.63;;;17.70;1.00;;;;;;5032725;28;20218;-81
2023/08/26 01:30:36;;;;;;;5.95;5.25;;;17.70;1.00;;;;;;5036044;28;20188;-82
2023/08/26 01:33:19;;;;;;;6.43;5.78;;;18.00;1.00;;;;;;5035578;28;20242;-82
2023/08/26 01:35:47;;;;;;;5.82;5.25;;;18.10;1.00;;;;;;5053825;28;20195;-83
2023/08/26 01:38:16;;;;;;;5.88;4.72;;;17.80;1.00;;;;;;5035885;28;20203;-81
2023/08/26 01:40:51;;;;;;;6.55;5.32;;;18.30;1.00;;;;;;5049298;28;20221;-81
2023/08/26 01:43:21;;;;;;;6.07;4.93;;;18.50;1.00;;;;;;5017283;28;20178;-81
2023/08/26 01:45:47;;;;;;;7.88;5.25;;;19.20;1.00;;;;;;5017386;28;20183;-82
2023/08/26 01:48:15;;;;;;;8.80;5.57;;;18.70;1.00;;;;;;5017292;28;20275;-81
2023/08/26 01:54:07;;;;;;;6.07;5.00;;;18.00;1.00;;;;;;5034774;28;20266;-82
2023/08/26 01:56:33;;;;;;;5.88;4.82;;;18.20;1.00;;;;;;5016668;28;20270;-82
2023/08/26 01:58:59;;;;;;;5.53;5.03;;;18.30;1.00;;;;;;5016641;28;20203;-83
2023/08/26 02:01:25;;;;;;;6.57;5.97;;;18.10;1.00;;;;;;5017173;28;20238;-81
2023/08/26 02:03:50;;;;;;;5.38;4.85;;;18.30;1.00;;;;;;5019180;28;20179;-81
2023/08/26 02:06:16;;;;;;;7.50;5.03;;;18.50;1.00;;;;;;5019356;28;20554;-82
2023/08/26 02:08:42;;;;;;;5.63;5.13;;;18.10;1.00;;;;;;5019370;28;20202;-82
2023/08/26 02:11:09;;;;;;;6.45;5.85;;;18.00;1.00;;;;;;5019368;28;20232;-82
2023/08/26 02:13:36;;;;;;;5.82;5.30;;;18.00;1.00;;;;;;5037059;28;20171;-82
2023/08/26 02:16:01;;;;;;;6.88;5.97;;;18.30;1.00;;;;;;5036882;28;20167;-84
2023/08/26 02:18:29;;;;;;;7.68;5.82;;;18.20;1.00;;;;;;5036833;28;20233;-82
2023/08/26 02:20:58;;;;;;;7.07;6.57;;;18.50;1.00;;;;;;5018952;28;20186;-82
2023/08/26 02:23:27;;;;;;;7.57;6.22;;;18.00;1.00;;;;;;5037564;28;20183;-81
2023/08/26 02:25:52;;;;;;;8.38;6.38;;;19.00;1.00;;;;;;5036591;28;20179;-82
2023/08/26 02:28:18;;;;;;;7.15;6.40;;;17.90;1.00;;;;;;5037028;28;20214;-82
2023/08/26 02:30:44;;;;;;;7.15;6.55;;;17.90;1.00;;;;;;5018622;28;20182;-81
2023/08/26 02:33:09;;;;;;;7.00;6.43;;;18.90;1.00;;;;;;5019374;28;20672;-81
2023/08/26 02:35:36;;;;;;;8.27;6.60;;;18.20;1.00;;;;;;5036315;28;20171;-81
2023/08/26 02:38:09;;;;;;;7.15;6.50;;;17.70;1.00;;;;;;5017890;28;20253;-82
2023/08/26 02:40:35;;;;;;;7.53;6.82;;;18.70;1.00;;;;;;5017291;28;20190;-82
2023/08/26 02:43:02;;;;;;;6.35;5.75;;;18.70;1.00;;;;;;5035876;28;20212;-83
2023/08/26 02:45:28;;;;;;;7.53;6.47;;;18.40;1.00;;;;;;5018221;28;20179;-81
2023/08/26 02:47:54;;;;;;;8.63;7.18;;;18.50;1.00;;;;;;5036236;28;20209;-82
2023/08/26 02:50:22;;;;;;;7.32;6.72;;;18.70;1.00;;;;;;5038283;28;20253;-82
2023/08/26 02:52:47;;;;;;;8.38;7.55;;;18.30;1.00;;;;;;5036265;28;20250;-82
2023/08/26 02:55:13;;;;;;;8.38;7.57;;;18.30;1.00;;;;;;5035933;28;20203;-82
2023/08/26 02:57:39;;;;;;;8.45;7.75;;;18.50;1.00;;;;;;5035763;28;20641;-82
2023/08/26 03:00:05;;;;;;;8.05;7.30;;;18.70;1.00;;;;;;5035632;28;20182;-82
2023/08/26 03:02:31;;;;;;;8.70;7.85;;;20.50;1.00;;;;;;5017224;28;20230;-81
2023/08/26 03:04:57;;;;;;;8.77;8.02;;;19.00;1.00;;;;;;5017570;28;20207;-82
2023/08/26 03:07:23;;;;;;;10.88;9.98;;;17.30;99.90;;;;;;5035832;28;20253;-82
2023/08/26 03:09:56;;;;;;;10.45;9.35;;;18.80;99.90;;;;;;5017699;28;20202;-82
2023/08/26 03:12:22;;;;;;;10.95;10.05;;;18.50;1.00;;;;;;5035766;28;20175;-82
2023/08/26 03:14:50;;;;;;;12.13;10.98;;;19.30;1.00;;;;;;5017408;28;20549;-82
2023/08/26 03:17:25;;;;;;;15.45;14.05;;;18.80;1.00;;;;;;5017603;28;20653;-83
2023/08/26 03:19:54;;;;;;;19.45;17.55;;;18.40;1.00;;;;;;5016948;28;20224;-82
2023/08/26 03:22:19;;;;;;;23.15;20.85;;;18.70;1.00;;;;;;5017373;28;20676;-82
2023/08/26 03:24:45;;;;;;;19.08;17.45;;;18.70;1.00;;;;;;5017064;28;20190;-82
2023/08/26 03:40:05;;;;;;;19.10;17.38;;;20.80;1.00;;;;;;5041384;22;20230;-73
2023/08/26 03:42:30;;;;;;;18.65;16.77;;;18.60;1.00;;;;;;5033783;28;20171;-74
2023/08/26 03:44:56;;;;;;;18.98;17.02;;;18.60;1.00;;;;;;5033411;28;20195;-74
2023/08/26 03:47:22;;;;;;;19.67;17.67;;;18.60;1.00;;;;;;5033848;28;20560;-73
2023/08/26 03:49:48;;;;;;;20.92;18.77;;;18.60;1.00;;;;;;5033815;28;20221;-74
2023/08/26 03:52:13;;;;;;;20.65;18.73;;;18.60;1.00;;;;;;5033389;28;20175;-74
2023/08/26 03:54:39;;;;;;;21.27;19.02;;;18.70;1.00;;;;;;5033490;28;20216;-74
2023/08/26 03:57:05;;;;;;;19.70;17.73;;;18.70;1.00;;;;;;5033115;28;20197;-74
2023/08/26 03:59:31;;;;;;;19.98;18.08;;;18.70;1.00;;;;;;5033687;28;20273;-74
2023/08/26 04:01:56;;;;;;;19.35;17.55;;;18.60;1.00;;;;;;5033926;28;20694;-73
2023/08/26 04:04:22;;;;;;;20.05;18.23;;;18.60;1.00;;;;;;5033400;28;20241;-74
2023/08/26 04:06:47;;;;;;;21.20;19.10;;;18.60;1.00;;;;;;5032906;28;20199;-74
2023/08/26 04:09:13;;;;;;;19.77;17.98;;;18.60;1.00;;;;;;5033512;28;20263;-74
2023/08/26 04:11:40;;;;;;;19.58;17.77;;;18.60;1.00;;;;;;5033575;28;20189;-74
2023/08/26 04:14:06;;;;;;;19.63;17.83;;;18.60;1.00;;;;;;5033305;28;20199;-73
2023/08/26 04:16:31;;;;;;;20.17;18.27;;;18.70;1.00;;;;;;5032934;28;20197;-73
2023/08/26 04:18:57;;;;;;;20.42;18.55;;;18.60;1.00;;;;;;5033473;28;20229;-74
2023/08/26 04:21:22;;;;;;;19.02;17.23;;;18.60;1.00;;;;;;5033493;28;20171;-73
2023/08/26 04:23:48;;;;;;;19.00;17.20;;;18.60;1.00;;;;;;5033069;28;20202;-74
2023/08/26 04:26:14;;;;;;;18.98;17.05;;;18.60;1.00;;;;;;5015103;28;20617;-73
2023/08/26 04:28:39;;;;;;;19.20;17.48;;;18.60;1.00;;;;;;5033359;28;20222;-74
2023/08/26 04:31:07;;;;;;;18.85;17.25;;;18.70;1.00;;;;;;5015797;28;20228;-74
2023/08/26 04:33:33;;;;;;;20.50;18.58;;;18.70;1.00;;;;;;5033098;28;20198;-74
2023/08/26 04:35:59;;;;;;;20.15;18.35;;;18.70;1.00;;;;;;5032684;28;20171;-74
2023/08/26 04:38:24;;;;;;;19.63;17.83;;;18.70;1.00;;;;;;5033139;28;20209;-74
2023/08/26 04:40:50;;;;;;;18.13;16.48;;;18.70;1.00;;;;;;5033204;28;20190;-74
2023/08/26 04:43:16;;;;;;;20.02;18.13;;;18.70;1.00;;;;;;5033090;28;20214;-74
2023/08/26 04:45:43;;;;;;;19.88;17.77;;;18.70;1.00;;;;;;5032592;28;20638;-74
2023/08/26 04:48:09;;;;;;;18.77;16.90;;;18.60;1.00;;;;;;5033266;28;20240;-74
2023/08/26 04:50:34;;;;;;;19.50;17.60;;;18.60;1.00;;;;;;5033226;28;20253;-74
2023/08/26 04:53:03;;;;;;;20.15;18.15;;;18.60;1.00;;;;;;5033223;28;20182;-73
2023/08/26 04:55:31;;;;;;;21.17;19.08;;;18.50;1.00;;;;;;5032606;28;20186;-73
2023/08/26 04:57:56;;;;;;;22.02;19.83;;;18.50;1.00;;;;;;5033095;28;20176;-73
2023/08/26 05:00:22;;;;;;;20.63;18.63;;;18.50;1.00;;;;;;5033172;28;20642;-73
2023/08/26 05:02:48;;;;;;;23.67;21.38;;;18.50;1.00;;;;;;5032850;28;20574;-74
2023/08/26 05:05:13;;;;;;;23.45;20.95;;;18.50;1.00;;;;;;5034797;28;20207;-74
2023/08/26 05:07:39;;;;;;;24.17;21.70;;;18.50;1.00;;;;;;5036630;28;20190;-73
2023/08/26 05:10:05;;;;;;;25.08;22.38;;;18.50;1.00;;;;;;5036876;28;20175;-73
2023/08/26 05:12:31;;;;;;;24.73;22.00;;;18.50;1.00;;;;;;5036630;28;20178;-73
2023/08/26 05:14:57;;;;;;;25.35;22.65;;;18.50;1.00;;;;;;5036078;28;20210;-73
2023/08/26 05:17:22;;;;;;;25.52;22.70;;;18.70;1.00;;;;;;5036692;28;20240;-73
2023/08/26 05:19:48;;;;;;;24.48;21.88;;;18.90;1.00;;;;;;5036480;28;20221;-73
2023/08/26 05:22:14;;;;;;;24.10;21.55;;;19.00;99.90;;;;;;5036686;28;20614;-73
2023/08/26 05:24:39;;;;;;;22.10;19.80;;;19.10;99.90;;;;;;5036352;28;20222;-73
2023/08/26 05:27:05;;;;;;;21.13;18.88;;;19.40;1.00;;;;;;5018180;28;20203;-73
2023/08/26 05:29:31;;;;;;;21.75;19.40;;;19.50;1.00;;;;;;5036517;28;20250;-72
2023/08/26 05:31:56;;;;;;;20.75;18.52;;;19.70;99.90;;;;;;5036424;28;20175;-73
2023/08/26 05:34:22;;;;;;;22.27;19.88;;;19.80;1.00;;;;;;5018504;28;20280;-73
2023/08/26 05:36:48;;;;;;;19.92;17.83;;;19.80;99.90;;;;;;5035661;28;20167;-73
2023/08/26 05:39:13;;;;;;;19.42;17.42;;;19.80;99.90;;;;;;5036263;28;20265;-73
2023/08/26 05:41:39;;;;;;;21.23;17.10;;;19.90;1.00;;;;;;5036231;28;20198;-73
2023/08/26 05:44:06;;;;;;;22.50;18.48;;;19.90;99.90;;;;;;5035953;28;20226;-73
2023/08/26 05:46:31;;;;;;;18.83;16.85;;;20.20;99.90;;;;;;5035512;28;20171;-73
2023/08/26 05:48:57;;;;;;;18.30;16.40;;;20.30;1.00;;;;;;5036033;28;20198;-73
2023/08/26 05:51:23;;;;;;;18.48;16.48;;;20.30;99.90;;;;;;5036207;28;20221;-73
2023/08/26 05:53:48;;;;;;;19.95;17.83;;;20.40;93.00;;;;;;5035785;28;20190;-73
2023/08/26 05:56:14;;;;;;;19.00;17.02;;;20.50;1.00;;;;;;5035363;28;20679;-73
2023/08/26 05:58:40;;;;;;;19.70;16.50;;;20.50;1.00;;;;;;5035972;28;20175;-73
2023/08/26 06:01:05;;;;;;;18.40;16.60;;;20.50;1.00;;;;;;5035799;28;20198;-73
2023/08/26 06:03:31;;;;;;;18.48;16.63;;;20.40;1.00;;;;;;5035585;28;20210;-73
2023/08/26 06:05:56;;;;;;;19.55;16.92;;;20.30;99.90;;;;;;5035101;28;20550;-72
2023/08/26 06:08:22;;;;;;;19.35;17.42;;;20.20;99.90;;;;;;5035698;28;20209;-73
2023/08/26 06:10:53;;;;;;;18.90;17.00;;;20.20;1.00;;;;;;5035672;28;20171;-73
2023/08/26 06:13:18;;;;;;;18.83;16.83;;;20.20;1.00;;;;;;5035388;28;20194;-73
2023/08/26 06:15:44;;;;;;;18.58;16.73;;;20.30;1.00;;;;;;5034628;28;20179;-73
2023/08/26 06:18:10;;;;;;;17.30;15.50;;;20.40;1.00;;;;;;5035466;28;20603;-73
2023/08/26 06:20:35;;;;;;;17.60;15.15;;;20.60;99.90;;;;;;5035563;28;20213;-73
2023/08/26 06:23:02;;;;;;;16.85;15.15;;;20.80;1.00;;;;;;5035154;28;20179;-73
2023/08/26 06:25:28;;;;;;;15.77;14.13;;;21.00;1.00;;;;;;5034889;28;20179;-73
2023/08/26 06:27:53;;;;;;;16.35;13.90;;;21.30;99.90;;;;;;5035151;28;20738;-73
2023/08/26 06:30:19;;;;;;;14.23;12.73;;;21.70;1.00;;;;;;5035382;28;20205;-73
2023/08/26 06:32:45;;;;;;;14.68;13.18;;;22.00;1.00;;;;;;5034982;28;20179;-73
2023/08/26 06:35:10;;;;;;;15.60;14.00;;;22.10;1.00;;;;;;5034619;28;20221;-73
2023/08/26 06:37:36;;;;;;;15.15;13.68;;;22.00;1.00;;;;;;5035111;28;20186;-73
2023/08/26 06:40:03;;;;;;;15.13;13.63;;;21.80;1.00;;;;;;5035074;28;20229;-73
2023/08/26 06:42:28;;;;;;;13.65;12.20;;;21.70;1.00;;;;;;5034951;28;20224;-73
2023/08/26 06:44:54;;;;;;;13.73;12.43;;;21.90;99.90;;;;;;5034436;28;20277;-73
2023/08/26 06:47:20;;;;;;;12.88;11.68;;;22.40;99.90;;;;;;5034787;28;20195;-73
2023/08/26 06:49:45;;;;;;;14.90;11.30;;;23.90;99.90;;;;;;5034910;28;20190;-73
2023/08/26 06:52:11;;;;;;;11.27;10.27;;;25.60;1.00;;;;;;5034896;28;20647;-73
2023/08/26 06:54:37;;;;;;;11.98;10.80;;;26.00;1.00;;;;;;5034683;28;20234;-74
2023/08/26 06:57:02;;;;;;;11.52;10.32;;;25.80;1.00;;;;;;5034102;28;20189;-73
2023/08/26 06:59:28;;;;;;;11.82;10.57;;;25.70;1.00;;;;;;5035177;28;20190;-73
2023/08/26 07:01:54;;;;;;;13.00;11.15;;;24.70;1.00;;;;;;5034631;28;20186;-73
2023/08/26 07:04:19;;;;;;;12.18;10.98;;;23.70;1.00;;;;;;5034401;28;20210;-74
2023/08/26 07:06:46;;;;;;;12.60;11.05;;;23.10;1.00;;;;;;5033905;28;20557;-73
2023/08/26 07:09:12;;;;;;;12.02;10.77;;;22.90;1.00;;;;;;5034582;28;20199;-73
2023/08/26 07:11:37;;;;;;;12.00;10.65;;;22.70;1.00;;;;;;5016935;28;20175;-74
2023/08/26 07:14:03;;;;;;;11.35;10.32;;;22.60;1.00;;;;;;5034230;28;20708;-73
2023/08/26 07:16:29;;;;;;;13.43;10.25;;;22.50;1.00;;;;;;5033727;28;20258;-74
2023/08/26 07:18:55;;;;;;;11.50;10.30;;;22.30;1.00;;;;;;5034321;28;20174;-73
2023/08/26 07:21:21;;;;;;;11.18;9.98;;;22.20;1.00;;;;;;5034602;28;20736;-74
2023/08/26 07:23:46;;;;;;;11.10;9.93;;;22.10;1.00;;;;;;5034086;28;20193;-74
2023/08/26 07:26:12;;;;;;;10.15;9.15;;;22.00;1.00;;;;;;5033450;28;20175;-73
2023/08/26 07:28:38;;;;;;;9.95;8.98;;;21.90;1.00;;;;;;5033758;28;20279;-73
2023/08/26 07:31:05;;;;;;;11.38;9.63;;;21.80;1.00;;;;;;5034068;28;20189;-74
2023/08/26 07:33:31;;;;;;;10.10;9.10;;;21.90;1.00;;;;;;5033845;28;20190;-74
2023/08/26 07:36:08;;;;;;;9.38;8.32;;;21.90;1.00;;;;;;5033416;28;20222;-74
2023/08/26 07:38:34;;;;;;;8.15;7.35;;;21.90;1.00;;;;;;5034018;28;20277;-73
2023/08/26 07:43:28;;;;;;;8.50;7.45;;;21.90;1.00;;;;;;5051977;28;20226;-74
2023/08/26 07:45:53;;;;;;;7.88;7.07;;;21.90;1.00;;;;;;5053135;28;20216;-73
2023/08/26 07:48:19;;;;;;;8.75;7.85;;;21.90;1.00;;;;;;5053365;28;20210;-75
2023/08/26 07:50:44;;;;;;;8.50;7.70;;;21.80;1.00;;;;;;5053807;28;20532;-73
2023/08/26 07:53:10;;;;;;;8.68;7.35;;;21.80;1.00;;;;;;5053575;28;20205;-73
2023/08/26 07:55:36;;;;;;;8.43;7.60;;;21.90;1.00;;;;;;5035315;28;20595;-74
2023/08/26 07:58:01;;;;;;;8.50;7.55;;;21.80;1.00;;;;;;5053550;28;20257;-73
2023/08/26 08:00:27;;;;;;;9.13;7.90;;;21.80;1.00;;;;;;5053528;28;20220;-74
2023/08/26 08:02:55;;;;;;;8.82;7.97;;;21.90;1.00;;;;;;5053352;28;20281;-74
2023/08/26 08:05:21;;;;;;;8.48;7.70;;;22.00;1.00;;;;;;5053130;28;20171;-73
2023/08/26 08:07:46;;;;;;;9.27;8.38;;;22.10;1.00;;;;;;5053317;28;20292;-73
2023/08/26 08:10:12;;;;;;;8.60;7.70;;;22.10;1.00;;;;;;5053454;28;20233;-73
2023/08/26 08:12:38;;;;;;;8.95;8.07;;;22.10;1.00;;;;;;5053400;28;20166;-74
2023/08/26 08:15:04;;;;;;;9.10;8.02;;;21.90;1.00;;;;;;5052744;28;20679;-73
2023/08/26 08:17:31;;;;;;;10.27;8.55;;;21.70;1.00;;;;;;5053223;28;20690;-73
2023/08/26 08:19:57;;;;;;;8.85;8.10;;;21.60;1.00;;;;;;5053362;28;20648;-74
2023/08/26 08:22:41;;;;;;;8.95;8.02;;;21.80;1.00;;;;;;5053480;28;20216;-73
2023/08/26 08:25:08;;;;;;;8.35;6.63;;;21.80;1.00;;;;;;5052817;28;20189;-73
2023/08/26 08:27:33;;;;;;;5.40;4.85;;;21.60;1.00;;;;;;5053077;28;20202;-73
2023/08/26 08:29:59;;;;;;;6.18;5.13;;;21.00;1.00;;;;;;5053391;28;20157;-74
2023/08/26 08:32:26;;;;;;;5.05;4.28;;;20.70;1.00;;;;;;5053302;28;20305;-74
2023/08/26 08:34:51;;;;;;;5.63;3.65;;;20.60;1.00;;;;;;5052666;28;20229;-74
2023/08/26 08:37:17;;;;;;;6.40;3.67;;;20.50;1.00;;;;;;5053090;28;20551;-73
2023/08/26 08:39:43;;;;;;;3.97;2.45;;;20.30;1.00;;;;;;5056564;28;20174;-73
2023/08/26 08:42:15;;;;;;;2.50;2.30;;;20.30;1.00;;;;;;5056820;28;20653;-74
2023/08/26 08:44:43;;;;;;;2.20;2.00;;;20.40;1.00;;;;;;5056971;28;20567;-74
2023/08/26 08:47:09;;;;;;;3.17;1.65;;;20.40;1.00;;;;;;5056855;28;20194;-73
2023/08/26 08:49:36;;;;;;;2.75;1.80;;;20.50;99.90;;;;;;5057034;28;20177;-73
2023/08/26 08:52:05;;;;;;;3.67;1.73;;;20.30;99.90;;;;;;5057089;28;20175;-73
2023/08/26 08:54:32;;;;;;;3.03;1.75;;;20.20;99.90;;;;;;5056745;28;20193;-73
2023/08/26 08:56:59;;;;;;;3.15;1.63;;;20.10;99.90;;;;;;5056362;28;20174;-74
2023/08/26 08:59:29;;;;;;;2.90;1.88;;;20.20;1.00;;;;;;5057060;28;20179;-74
2023/08/26 09:01:58;;;;;;;4.07;1.92;;;20.20;99.90;;;;;;5056576;28;20256;-74
2023/08/26 09:04:25;;;;;;;2.78;2.08;;;20.20;99.90;;;;;;5056621;28;20194;-73
2023/08/26 09:06:52;;;;;;;2.60;1.58;;;20.20;99.90;;;;;;5056167;28;20305;-73
2023/08/26 09:09:20;;;;;;;3.05;1.83;;;20.20;99.90;;;;;;5056678;28;20240;-73
2023/08/26 09:11:49;;;;;;;3.80;2.33;;;20.30;99.90;;;;;;5056904;28;20171;-73
2023/08/26 09:14:15;;;;;;;3.47;2.50;;;20.30;1.00;;;;;;5056383;28;20236;-74
2023/08/26 09:16:42;;;;;;;2.72;2.10;;;20.30;1.00;;;;;;5055963;28;20649;-74
2023/08/26 09:19:09;;;;;;;2.53;1.85;;;20.30;99.90;;;;;;5056563;28;20586;-73
2023/08/26 09:21:47;;;;;;;2.00;1.85;;;20.30;1.00;;;;;;5056425;28;20220;-73
2023/08/26 09:24:17;;;;;;;2.97;1.90;;;20.40;1.00;;;;;;5056247;28;20197;-73
2023/08/26 09:26:47;;;;;;;2.45;2.03;;;20.30;1.00;;;;;;5055746;28;20641;-73
2023/08/26 09:29:20;;;;;;;2.00;1.80;;;20.30;1.00;;;;;;5056349;28;20181;-73
2023/08/26 09:31:51;;;;;;;2.67;2.00;;;20.30;1.00;;;;;;5056365;28;20170;-73
2023/08/26 09:34:29;;;;;;;3.10;1.77;;;20.40;99.90;;;;;;5055941;28;20619;-73
2023/08/26 09:36:56;;;;;;;4.38;2.15;;;20.40;99.90;;;;;;5055710;28;20178;-73
2023/08/26 09:39:22;;;;;;;3.22;1.83;;;20.50;99.90;;;;;;5038387;28;20540;-73
2023/08/26 09:41:48;;;;;;;2.70;1.90;;;20.60;99.90;;;;;;5056076;28;20194;-73
2023/08/26 09:44:16;;;;;;;3.20;1.85;;;20.60;99.90;;;;;;5037965;28;20201;-73
2023/08/26 09:46:43;;;;;;;3.88;2.40;;;20.70;99.90;;;;;;5055305;28;20185;-73
2023/08/26 09:49:13;;;;;;;2.33;1.65;;;20.90;99.90;;;;;;5038476;28;20532;-73
2023/08/26 09:51:48;;;;;;;3.17;2.05;;;21.10;99.90;;;;;;5055374;28;20244;-73
2023/08/26 09:54:19;;;;;;;2.47;1.63;;;21.40;99.90;;;;;;5055661;28;20197;-73
2023/08/26 09:56:46;;;;;;;2.13;1.20;;;21.40;99.90;;;;;;5055738;28;20170;-73
2023/08/26 09:59:12;;;;;;;1.65;1.20;;;21.30;99.90;;;;;;5055777;28;20249;-74
2023/08/26 10:01:39;;;;;;;1.20;0.88;;;21.20;99.90;;;;;;5055845;28;20163;-73
2023/08/26 10:04:08;;;;;;;2.30;1.00;;;21.00;99.90;;;;;;5055656;28;20198;-73
2023/08/26 10:06:42;;;;;;;2.92;1.10;;;20.90;99.90;;;;;;5055023;28;20621;-74
2023/08/26 10:09:31;;;;;;;2.25;0.90;;;20.90;99.90;;;;;;5055617;28;20626;-73
2023/08/26 10:12:00;;;;;;;2.17;0.70;;;20.80;99.90;;;;;;5055539;28;20175;-73
2023/08/26 10:14:29;;;;;;;1.42;0.90;;;20.80;99.90;;;;;;5037509;28;20287;-73
2023/08/26 10:16:56;;;;;;;2.05;0.90;;;20.80;99.90;;;;;;5054813;28;20190;-73
2023/08/26 10:19:24;;;;;;;1.00;0.80;;;20.70;99.90;;;;;;5055474;28;20170;-74
2023/08/26 10:21:50;;;;;;;2.25;0.85;;;20.80;99.90;;;;;;5055415;28;20202;-74
2023/08/26 10:24:16;;;;;;;2.10;0.90;;;20.80;99.90;;;;;;5055113;28;20243;-73
2023/08/26 10:26:42;;;;;;;1.60;0.60;;;20.80;99.90;;;;;;5036847;28;20210;-73
2023/08/26 10:29:08;;;;;;;2.22;0.88;;;20.90;99.90;;;;;;5037353;28;20181;-73
2023/08/26 10:31:38;;;;;;;1.00;0.90;;;20.90;99.90;;;;;;5055318;28;20172;-73
2023/08/26 10:34:07;;;;;;;1.88;0.80;;;21.00;99.90;;;;;;5037167;28;20197;-73
2023/08/26 10:36:41;;;;;;;1.55;0.93;;;18.70;99.90;;;;;;5054367;28;20181;-73
2023/08/26 10:39:18;;;;;;;2.13;1.10;;;21.00;99.90;;;;;;5055236;28;20154;-74
2023/08/26 10:42:11;;;;;;;2.83;0.90;;;20.90;99.90;;;;;;5037211;28;20662;-74
2023/08/26 10:44:38;;;;;;;1.50;0.82;;;20.90;99.90;;;;;;5036973;28;20236;-74
2023/08/26 10:47:04;;;;;;;1.83;0.82;;;20.90;99.90;;;;;;5054302;28;20221;-73
2023/08/26 10:49:29;;;;;;;2.15;0.90;;;20.90;99.90;;;;;;5054844;28;20636;-74
2023/08/26 10:52:17;;;;;;;1.90;0.88;;;21.30;99.90;;;;;;5054961;28;20186;-74
2023/08/26 10:54:46;;;;;;;1.30;0.85;;;21.20;99.90;;;;;;5054309;28;20202;-74
2023/08/26 10:57:12;;;;;;;1.20;0.85;;;21.40;99.90;;;;;;5054485;28;20602;-73
2023/08/26 10:59:40;;;;;;;2.05;1.02;;;21.50;99.90;;;;;;5054702;28;20289;-74
2023/08/26 11:02:07;;;;;;;1.88;0.88;;;21.90;99.90;;;;;;5053667;28;20206;-74
2023/08/26 11:04:44;;;;;;;2.10;1.13;;;22.00;99.90;;;;;;5036610;28;20198;-74
2023/08/26 11:07:17;;;;;;;2.17;1.13;;;22.30;99.90;;;;;;5036419;28;20205;-73
2023/08/26 11:09:43;;;;;;;3.47;1.15;;;22.30;99.90;;;;;;5054533;28;20174;-74
2023/08/26 11:12:25;;;;;;;2.28;0.95;;;22.20;99.90;;;;;;5054360;28;20245;-74
2023/08/26 11:14:51;;;;;;;1.65;0.95;;;22.00;99.90;;;;;;5035921;28;20263;-73
2023/08/26 11:17:18;;;;;;;1.73;0.80;;;21.90;99.90;;;;;;5054425;28;20212;-74
2023/08/26 11:19:44;;;;;;;3.38;1.02;;;22.00;99.90;;;;;;5036491;28;20175;-73
2023/08/26 11:22:10;;;;;;;3.10;0.95;;;22.00;99.90;;;;;;5054194;28;20216;-74
2023/08/26 11:24:56;;;;;;;2.80;1.10;;;22.10;99.90;;;;;;5111368;27;20679;-74
2023/08/26 11:27:22;;;;;;;2.92;1.00;;;21.90;99.90;;;;;;5110129;28;20663;-74
2023/08/26 11:29:48;;;;;;;2.67;0.90;;;21.70;99.90;;;;;;5111292;28;20256;-74
2023/08/26 11:32:13;;;;;;;1.95;0.93;;;21.40;99.90;;;;;;5111353;28;20527;-74
2023/08/26 11:34:39;;;;;;;1.42;0.90;;;21.30;99.90;;;;;;5111213;28;20226;-74
2023/08/26 11:37:05;;;;;;;3.47;1.38;;;21.30;99.90;;;;;;5110572;28;20237;-74
2023/08/26 11:39:31;;;;;;;2.58;1.00;;;21.30;99.90;;;;;;5111169;28;20207;-74
2023/08/26 11:41:57;;;;;;;3.00;1.10;;;21.30;99.90;;;;;;5111082;28;20207;-74
2023/08/26 11:44:23;;;;;;;2.08;1.00;;;21.30;99.90;;;;;;5110776;28;20615;-74
2023/08/26 11:46:50;;;;;;;3.00;1.00;;;21.30;99.90;;;;;;5110372;28;20252;-74
2023/08/26 11:49:16;;;;;;;2.70;0.93;;;21.40;99.90;;;;;;5111096;28;20577;-74
2023/08/26 11:51:41;;;;;;;1.52;0.90;;;21.60;99.90;;;;;;5110979;28;20249;-74
2023/08/26 11:54:26;;;;;;;1.55;1.10;;;21.50;99.90;;;;;;5110837;28;20200;-74
2023/08/26 11:56:52;;;;;;;2.97;1.10;;;21.40;99.90;;;;;;5110379;28;20176;-73
2023/08/26 11:59:19;;;;;;;1.40;0.88;;;21.30;99.90;;;;;;5110870;28;20207;-74
2023/08/26 12:01:45;;;;;;;2.33;0.80;;;21.50;99.90;;;;;;5110801;28;20172;-74
2023/08/26 12:04:15;;;;;;;1.85;1.00;;;21.70;99.90;;;;;;5110337;28;20584;-74
2023/08/26 12:06:42;;;;;;;2.25;0.80;;;21.90;99.90;;;;;;5109994;28;20737;-74
2023/08/26 12:09:10;;;;;;;2.28;0.80;;;21.80;99.90;;;;;;5110646;28;20229;-74
2023/08/26 12:11:39;;;;;;;2.08;1.13;;;21.70;99.90;;;;;;5110625;28;20179;-74
2023/08/26 12:14:21;;;;;;;3.10;1.30;;;21.80;99.90;;;;;;5110308;28;20196;-74
2023/08/26 12:16:47;;;;;;;1.75;0.80;;;21.80;99.90;;;;;;5109749;28;20164;-74
2023/08/26 12:19:18;;;;;;;2.35;0.93;;;21.90;99.90;;;;;;5110376;28;20217;-74
2023/08/26 12:21:50;;;;;;;1.52;0.80;;;21.80;99.90;;;;;;5110365;28;20294;-74
2023/08/26 12:24:26;;;;;;;1.17;0.80;;;21.70;99.90;;;;;;5109988;28;20299;-74
2023/08/26 12:26:52;;;;;;;3.03;1.20;;;21.70;99.90;;;;;;5108304;28;20175;-74
2023/08/26 12:29:18;;;;;;;1.20;0.80;;;21.60;99.90;;;;;;5110212;28;20225;-73
2023/08/26 12:31:44;;;;;;;2.25;1.10;;;21.50;99.90;;;;;;5110154;28;20168;-74
2023/08/26 12:34:10;;;;;;;2.40;1.00;;;21.60;99.90;;;;;;5107280;28;20663;-74
2023/08/26 12:36:36;;;;;;;1.40;1.00;;;21.70;99.90;;;;;;5095800;28;20169;-73
2023/08/26 12:39:02;;;;;;;1.60;0.88;;;21.80;99.90;;;;;;5096633;28;20532;-74
2023/08/26 12:41:28;;;;;;;3.33;1.10;;;21.90;99.90;;;;;;5096248;28;20177;-74
2023/08/26 12:43:55;;;;;;;1.70;0.90;;;22.00;99.90;;;;;;5094870;28;20205;-74
2023/08/26 12:46:21;;;;;;;2.53;1.13;;;22.00;99.90;;;;;;5095710;28;20172;-74
2023/08/26 12:48:50;;;;;;;2.55;1.00;;;22.00;99.90;;;;;;5095958;28;20170;-73
2023/08/26 12:51:16;;;;;;;3.03;1.10;;;21.80;99.90;;;;;;5096278;28;20181;-73
2023/08/26 12:53:43;;;;;;;1.98;1.05;;;21.80;99.90;;;;;;5095848;28;20197;-73
2023/08/26 12:56:09;;;;;;;1.83;0.80;;;21.90;99.90;;;;;;5095357;28;20678;-74
2023/08/26 12:58:35;;;;;;;1.83;0.77;;;22.10;99.90;;;;;;5096079;28;20260;-73
2023/08/26 13:01:01;;;;;;;1.83;1.10;;;22.20;99.90;;;;;;5096022;28;20200;-74
2023/08/26 13:03:27;;;;;;;1.65;1.02;;;22.00;99.90;;;;;;5095627;28;20207;-73
2023/08/26 13:05:55;;;;;;;1.30;1.10;;;22.10;99.90;;;;;;5094105;28;20173;-74